Ronald Reagan Washington National Airport
KDCA : now visible

Airfield :











YOU CAN JOIN US ON...

 
LOGIN :

Register | Disclaimer

   EN    FR    IT 

 









Legend :    VFR   Marginal VFR   IFR   Intensive IFR   Very Intensive IFR
Visi :
Ceiling :
>= 8 km
>= 3000ft
5 to 8 km
1000 to 3000 ft
1500m to 5 km
500 to 1000 ft
800 to 1500m
200 to 500 ft
< 800m
< 200 ft
Symbols :   Thunderstorms  Fog  Heavy snow  Heavy precipitations  Wind > 20 kt






- Airport Elevation : 15 ft
- IATA code : DCA


KDCA - Ronald Reagan Washington National

CURRENT METAR :
  • 192252Z 27004KT 10SM FEW055 BKN150 BKN230 12/03 A2985 RMK AO2 SLP109 T01170028

EXPIRED METARs :
  • 192152Z 23004KT 10SM FEW050 BKN160 BKN220 11/03 A2983 RMK AO2 SLP102 T01110028
  • 192052Z 29006KT 10SM FEW045 BKN170 BKN210 12/02 A2982 RMK AO2 SLP099 T01170022 53000
  • 191952Z 29005KT 10SM FEW040 SCT180 BKN200 12/03 A2981 RMK AO2 SLP096 T01220028

TAF KDCA
Valid from the 19 at 21:00 until the 21 at 00:00 UTC


192056Z 1921/2024 29006KT P6SM BKN200
FM200500 32004KT P6SM BKN050
FM201500 32010G17KT P6SM SCT040
FM202300 32009KT P6SM FEW110



MET'MAP, your aeronautical weather chart ! - Copyright ORBIFLY December 2007 - Disclaimer

ORBIFLY MET'MAP TEAM :

Programming & Development : Alexandra Zaïnal
Concept & Development : Baudouin d'Aumeries
Co-Development & Prog : Marc-Olivier Méhu
Technical & hardware support : Manuel Goepfert

Contact : metmap@orbifly.com




SOURCES & CREDITS :

   NOAA       Earth
Advisory